createdAt,value
2019-04-21T00:01:54.570Z,8.00
2019-04-21T00:04:36.119Z,7.62
2019-04-21T00:07:08.687Z,8.38
2019-04-21T00:09:50.682Z,8.18
2019-04-21T00:12:12.406Z,7.58
2019-04-21T00:14:31.234Z,7.92
2019-04-21T00:16:57.519Z,7.85
2019-04-21T00:19:39.013Z,7.70
2019-04-21T00:22:19.095Z,8.13
2019-04-21T00:24:48.788Z,8.30
2019-04-21T00:27:21.408Z,8.53
2019-04-21T00:29:51.862Z,8.68
2019-04-21T00:32:19.226Z,8.23
2019-04-21T00:34:32.204Z,7.78
2019-04-21T00:37:11.388Z,8.33
2019-04-21T00:39:55.684Z,8.35
2019-04-21T00:42:21.606Z,8.18
2019-04-21T00:44:39.879Z,8.05
2019-04-21T00:47:14.035Z,7.33
2019-04-21T00:49:53.880Z,8.53
2019-04-21T00:52:56.503Z,8.08
2019-04-21T00:57:54.771Z,8.35
2019-04-21T01:00:18.757Z,7.85
2019-04-21T01:02:49.947Z,7.85
2019-04-21T01:05:18.531Z,7.72
2019-04-21T01:07:42.026Z,8.25
2019-04-21T01:10:06.568Z,7.62
2019-04-21T01:12:41.810Z,8.20
2019-04-21T01:15:18.624Z,8.28
2019-04-21T01:17:42.990Z,7.83
2019-04-21T01:20:02.854Z,8.13
2019-04-21T01:22:18.046Z,8.55
2019-04-21T01:24:49.074Z,8.48
2019-04-21T01:27:26.317Z,8.35
2019-04-21T01:30:08.264Z,7.87
2019-04-21T01:32:34.385Z,8.10
2019-04-21T01:35:03.994Z,8.18
2019-04-21T01:37:42.107Z,8.33
2019-04-21T01:40:14.298Z,8.30
2019-04-21T01:42:33.543Z,8.20
2019-04-21T01:45:00.007Z,8.23
2019-04-21T01:47:24.974Z,8.53
2019-04-21T01:49:52.318Z,8.58
2019-04-21T01:52:39.287Z,8.93
2019-04-21T01:55:18.298Z,8.08
2019-04-21T01:58:01.983Z,7.92
2019-04-21T02:00:41.982Z,8.25
2019-04-21T02:03:29.386Z,8.53
2019-04-21T02:05:44.010Z,8.33
2019-04-21T02:08:13.422Z,8.05
2019-04-21T02:10:49.090Z,8.05
2019-04-21T02:13:14.394Z,8.95
2019-04-21T02:15:41.963Z,8.45
2019-04-21T02:18:15.911Z,8.63
2019-04-21T02:20:32.721Z,8.30
2019-04-21T02:25:38.362Z,8.65
2019-04-21T02:28:17.993Z,7.95
2019-04-21T02:33:26.121Z,8.08
2019-04-21T02:36:20.663Z,8.38
2019-04-21T02:40:46.408Z,8.80
2019-04-21T02:43:19.598Z,8.70
2019-04-21T02:45:49.657Z,7.92
2019-04-21T02:50:50.043Z,8.03
2019-04-21T02:53:21.220Z,9.28
2019-04-21T02:55:43.651Z,8.38
2019-04-21T02:58:34.418Z,9.18
2019-04-21T03:04:26.370Z,8.85
2019-04-21T03:09:45.859Z,8.65
2019-04-21T03:12:14.890Z,9.15
2019-04-21T03:14:55.579Z,8.35
2019-04-21T03:17:14.605Z,8.48
2019-04-21T03:22:18.242Z,8.75
2019-04-21T03:24:53.586Z,8.08
2019-04-21T03:27:25.844Z,9.28
2019-04-21T03:29:42.546Z,9.73
2019-04-21T03:32:31.023Z,9.05
2019-04-21T03:37:07.685Z,9.38
2019-04-21T03:39:37.309Z,8.63
2019-04-21T03:42:18.742Z,9.33
2019-04-21T03:44:38.121Z,8.65
2019-04-21T03:47:08.800Z,9.30
2019-04-21T03:49:40.343Z,8.60
2019-04-21T03:52:15.058Z,9.03
2019-04-21T03:54:37.193Z,9.00
2019-04-21T03:57:19.942Z,8.90
2019-04-21T03:59:31.603Z,9.35
2019-04-21T04:02:39.013Z,8.63
2019-04-21T04:05:11.055Z,9.93
2019-04-21T04:10:12.991Z,9.20
2019-04-21T04:12:45.575Z,8.58
2019-04-21T04:15:12.413Z,9.53
2019-04-21T04:20:11.842Z,9.70
2019-04-21T04:22:48.171Z,9.65
2019-04-21T04:25:09.430Z,9.75
2019-04-21T04:27:53.833Z,8.90
2019-04-21T04:30:19.328Z,9.70
2019-04-21T04:32:36.450Z,9.33
2019-04-21T04:35:25.925Z,9.87
2019-04-21T04:37:38.266Z,8.87
2019-04-21T04:40:51.668Z,9.88
2019-04-21T04:43:16.089Z,9.43
2019-04-21T04:48:09.103Z,9.30
2019-04-21T04:50:45.306Z,10.07
2019-04-21T04:53:01.889Z,9.17
2019-04-21T04:55:35.367Z,9.63
2019-04-21T04:58:13.170Z,9.33
2019-04-21T05:00:34.970Z,9.20
2019-04-21T05:05:51.079Z,9.67
2019-04-21T05:08:14.402Z,9.70
2019-04-21T05:10:41.093Z,9.47
2019-04-21T05:12:56.994Z,10.03
2019-04-21T05:15:45.895Z,9.47
2019-04-21T05:18:03.180Z,8.83
2019-04-21T05:20:26.153Z,10.23
2019-04-21T05:25:13.199Z,8.83
2019-04-21T05:27:43.781Z,9.80
2019-04-21T05:30:29.346Z,10.07
2019-04-21T05:33:00.037Z,10.33
2019-04-21T05:36:05.402Z,10.20
2019-04-21T05:38:49.270Z,9.30
2019-04-21T05:41:15.589Z,9.60
2019-04-21T05:43:54.389Z,10.63
2019-04-21T05:46:25.229Z,10.17
2019-04-21T05:48:57.916Z,10.83
2019-04-21T05:51:25.792Z,9.47
2019-04-21T05:54:10.951Z,11.07
2019-04-21T05:56:33.200Z,10.48
2019-04-21T05:58:59.392Z,11.40
2019-04-21T06:01:33.327Z,10.80
2019-04-21T06:03:57.714Z,10.35
2019-04-21T06:06:33.698Z,11.27
2019-04-21T06:08:52.542Z,11.18
2019-04-21T06:11:28.780Z,11.43
2019-04-21T06:14:05.470Z,11.57
2019-04-21T06:16:34.485Z,11.95
2019-04-21T06:19:00.947Z,10.70
2019-04-21T06:21:23.277Z,11.40
2019-04-21T06:23:49.779Z,11.70
2019-04-21T06:28:50.363Z,12.93
2019-04-21T06:31:33.766Z,11.65
2019-04-21T06:33:48.780Z,11.18
2019-04-21T06:39:12.307Z,11.18
2019-04-21T06:41:33.903Z,10.65
2019-04-21T06:46:35.501Z,10.75
2019-04-21T06:49:02.534Z,11.20
2019-04-21T06:51:33.706Z,10.63
2019-04-21T06:54:04.309Z,10.63
2019-04-21T06:56:36.622Z,10.88
2019-04-21T06:59:01.384Z,11.18
2019-04-21T07:01:37.803Z,10.75
2019-04-21T07:04:05.801Z,11.08
2019-04-21T07:06:40.412Z,10.98
2019-04-21T07:09:10.350Z,10.45
2019-04-21T07:11:26.943Z,10.18
2019-04-21T07:14:05.681Z,10.72
2019-04-21T07:16:25.184Z,10.13
2019-04-21T07:21:29.728Z,9.50
2019-04-21T07:24:03.154Z,9.25
2019-04-21T07:26:25.617Z,10.38
2019-04-21T07:28:56.437Z,9.90
2019-04-21T07:31:25.423Z,9.88
2019-04-21T07:33:58.714Z,9.55
2019-04-21T07:36:32.341Z,10.75
2019-04-21T07:38:49.797Z,9.83
2019-04-21T07:41:09.657Z,9.83
2019-04-21T07:43:44.038Z,9.65
2019-04-21T07:46:10.101Z,10.58
2019-04-21T07:48:49.435Z,10.20
2019-04-21T07:51:55.145Z,10.60
2019-04-21T07:54:25.119Z,10.10
2019-04-21T07:56:32.979Z,10.28
2019-04-21T07:59:23.971Z,10.32
2019-04-21T08:01:50.761Z,10.98
2019-04-21T08:04:38.270Z,10.32
2019-04-21T08:06:49.448Z,9.60
2019-04-21T08:09:12.460Z,9.78
2019-04-21T08:11:36.763Z,9.03
2019-04-21T08:14:18.103Z,10.05
2019-04-21T08:16:45.050Z,9.70
2019-04-21T08:19:13.054Z,10.03
2019-04-21T08:21:40.536Z,9.88
2019-04-21T08:24:07.752Z,9.78
2019-04-21T08:26:58.674Z,9.93
2019-04-21T08:29:20.302Z,9.78
2019-04-21T08:31:54.044Z,10.03
2019-04-21T08:36:33.982Z,9.20
2019-04-21T08:39:08.818Z,9.40
2019-04-21T08:41:31.331Z,9.28
2019-04-21T08:44:02.211Z,8.90
2019-04-21T08:46:40.845Z,9.60
2019-04-21T08:49:10.884Z,8.80
2019-04-21T08:54:09.382Z,9.13
2019-04-21T08:56:55.832Z,9.08
2019-04-21T08:59:38.806Z,9.55
2019-04-21T09:02:24.891Z,9.15
2019-04-21T09:04:53.528Z,9.30
2019-04-21T09:07:29.154Z,9.23
2019-04-21T09:09:54.782Z,8.63
2019-04-21T09:12:22.577Z,8.30
2019-04-21T09:14:50.593Z,8.08
2019-04-21T09:17:18.017Z,8.73
2019-04-21T09:22:16.770Z,8.85
2019-04-21T09:24:46.835Z,8.35
2019-04-21T09:27:16.783Z,8.80
2019-04-21T09:29:35.457Z,8.33
2019-04-21T09:31:59.485Z,7.80
2019-04-21T09:34:34.323Z,7.90
2019-04-21T09:37:12.507Z,8.88
2019-04-21T09:39:29.199Z,8.40
2019-04-21T09:41:59.052Z,8.48
2019-04-21T09:44:32.914Z,7.92
2019-04-21T09:46:58.537Z,7.95
2019-04-21T09:49:29.098Z,7.80
2019-04-21T09:51:53.653Z,7.40
2019-04-21T09:54:26.526Z,7.55
2019-04-21T09:56:57.906Z,7.42
2019-04-21T09:59:28.434Z,6.97
2019-04-21T10:01:59.188Z,7.78
2019-04-21T10:04:18.734Z,8.63
2019-04-21T10:06:47.617Z,8.33
2019-04-21T10:09:18.377Z,7.80
2019-04-21T10:11:45.919Z,8.05
2019-04-21T10:14:13.781Z,7.75
2019-04-21T10:17:06.820Z,8.55
2019-04-21T10:19:34.152Z,7.90
2019-04-21T10:22:03.765Z,7.75
2019-04-21T10:24:30.836Z,7.37
2019-04-21T10:26:58.982Z,6.80
2019-04-21T10:29:29.455Z,7.08
2019-04-21T10:31:55.674Z,6.80
2019-04-21T10:34:23.395Z,6.87
2019-04-21T10:36:51.197Z,8.03
2019-04-21T10:39:19.872Z,7.50
2019-04-21T10:41:47.759Z,7.20
2019-04-21T10:44:15.110Z,7.70
2019-04-21T10:46:42.854Z,7.10
2019-04-21T10:49:12.660Z,6.35
2019-04-21T10:51:41.117Z,6.62
2019-04-21T10:54:08.709Z,7.83
2019-04-21T10:56:41.404Z,6.20
2019-04-21T10:59:05.343Z,6.30
2019-04-21T11:01:33.046Z,6.72
2019-04-21T11:04:14.239Z,6.25
2019-04-21T11:06:36.846Z,5.92
2019-04-21T11:09:08.706Z,6.83
2019-04-21T11:11:37.574Z,5.78
2019-04-21T11:14:06.572Z,6.10
2019-04-21T11:16:35.178Z,5.83
2019-04-21T11:19:04.052Z,5.58
2019-04-21T11:21:31.325Z,5.83
2019-04-21T11:23:58.544Z,5.95
2019-04-21T11:26:27.496Z,5.87
2019-04-21T11:28:55.103Z,6.42
2019-04-21T11:31:22.927Z,6.10
2019-04-21T11:33:51.179Z,6.50
2019-04-21T11:36:19.480Z,5.65
2019-04-21T11:39:23.282Z,5.80
2019-04-21T11:41:39.362Z,6.42
2019-04-21T11:44:07.793Z,6.55
2019-04-21T11:46:36.301Z,6.28
2019-04-21T11:49:04.160Z,5.95
2019-04-21T11:51:31.641Z,6.05
2019-04-21T11:53:59.202Z,6.05
2019-04-21T11:56:27.210Z,5.28
2019-04-21T11:58:54.790Z,6.28
2019-04-21T12:01:23.488Z,6.10
2019-04-21T12:03:51.753Z,6.10
2019-04-21T12:06:19.417Z,5.90
2019-04-21T12:08:49.890Z,6.40
2019-04-21T12:11:17.756Z,6.35
2019-04-21T12:13:45.878Z,6.35
2019-04-21T12:16:14.863Z,6.40
2019-04-21T12:18:42.970Z,5.87
2019-04-21T12:21:11.449Z,5.62
2019-04-21T12:23:38.831Z,5.97
2019-04-21T12:26:07.391Z,6.28
2019-04-21T12:28:35.248Z,6.95
2019-04-21T12:31:05.398Z,6.25
2019-04-21T12:33:50.195Z,6.15
2019-04-21T12:36:17.934Z,5.70
2019-04-21T12:38:50.843Z,5.70
2019-04-21T12:41:14.912Z,6.42
2019-04-21T12:43:42.778Z,6.05
2019-04-21T12:46:10.079Z,6.22
2019-04-21T12:48:38.034Z,6.03
2019-04-21T12:51:06.091Z,6.15
2019-04-21T12:53:34.076Z,6.10
2019-04-21T12:56:02.142Z,6.67
2019-04-21T12:58:31.126Z,6.08
2019-04-21T13:00:58.987Z,7.12
2019-04-21T13:03:28.272Z,6.40
2019-04-21T13:05:57.899Z,6.00
2019-04-21T13:08:27.063Z,6.35
2019-04-21T13:10:54.370Z,5.80
2019-04-21T13:13:21.987Z,6.20
2019-04-21T13:15:49.453Z,5.92
2019-04-21T13:18:16.830Z,5.80
2019-04-21T13:20:46.330Z,5.85
2019-04-21T13:23:13.870Z,6.10
2019-04-21T13:25:41.649Z,6.37
2019-04-21T13:28:10.453Z,5.92
2019-04-21T13:30:38.104Z,5.62
2019-04-21T13:33:05.333Z,6.25
2019-04-21T13:35:33.247Z,6.33
2019-04-21T13:38:00.645Z,6.42
2019-04-21T13:41:05.485Z,6.12
2019-04-21T13:43:20.934Z,5.78
2019-04-21T13:45:49.834Z,6.12
2019-04-21T13:48:18.800Z,5.37
2019-04-21T13:50:47.101Z,6.53
2019-04-21T13:53:14.950Z,6.05
2019-04-21T13:55:44.534Z,6.10
2019-04-21T13:58:12.427Z,5.78
2019-04-21T14:00:40.018Z,5.47
2019-04-21T14:03:07.825Z,6.10
2019-04-21T14:05:36.185Z,6.33
2019-04-21T14:08:05.056Z,5.65
2019-04-21T14:10:33.483Z,5.95
2019-04-21T14:13:02.468Z,5.30
2019-04-21T14:15:30.438Z,5.67
2019-04-21T14:17:58.389Z,5.47
2019-04-21T14:20:27.057Z,5.70
2019-04-21T14:22:55.774Z,5.92
2019-04-21T14:25:23.935Z,5.17
2019-04-21T14:27:52.588Z,5.37
2019-04-21T14:30:23.170Z,5.72
2019-04-21T14:32:50.355Z,5.20
2019-04-21T14:35:18.899Z,5.50
2019-04-21T14:37:46.701Z,5.15
2019-04-21T14:40:20.728Z,5.53
2019-04-21T14:42:44.414Z,5.50
2019-04-21T14:45:22.985Z,5.72
2019-04-21T14:48:05.221Z,5.17
2019-04-21T14:50:48.840Z,5.55
2019-04-21T14:53:21.877Z,5.50
2019-04-21T14:55:49.209Z,5.42
2019-04-21T14:58:17.200Z,5.62
2019-04-21T15:01:00.025Z,5.78
2019-04-21T15:03:27.978Z,5.25
2019-04-21T15:05:55.704Z,5.60
2019-04-21T15:08:24.817Z,4.80
2019-04-21T15:10:52.794Z,4.87
2019-04-21T15:13:21.730Z,5.12
2019-04-21T15:15:49.877Z,5.42
2019-04-21T15:18:18.793Z,5.12
2019-04-21T15:20:48.601Z,4.58
2019-04-21T15:23:15.743Z,4.60
2019-04-21T15:25:43.945Z,4.85
2019-04-21T15:28:11.671Z,4.62
2019-04-21T15:30:39.066Z,5.12
2019-04-21T15:33:06.785Z,4.85
2019-04-21T15:35:35.309Z,5.00
2019-04-21T15:38:04.079Z,4.78
2019-04-21T15:40:40.041Z,4.58
2019-04-21T15:43:02.285Z,4.72
2019-04-21T15:45:30.621Z,4.47
2019-04-21T15:47:58.234Z,4.65
2019-04-21T15:50:26.507Z,4.10
2019-04-21T15:52:55.921Z,4.40
2019-04-21T15:56:00.826Z,4.30
2019-04-21T15:58:48.442Z,5.00
2019-04-21T16:01:34.561Z,5.15
2019-04-21T16:04:02.852Z,4.40
2019-04-21T16:06:31.979Z,4.95
2019-04-21T16:09:01.377Z,4.97
2019-04-21T16:11:28.587Z,4.78
2019-04-21T16:13:57.421Z,4.55
2019-04-21T16:16:27.310Z,4.17
2019-04-21T16:18:54.383Z,4.60
2019-04-21T16:25:21.052Z,4.15
2019-04-21T16:27:49.311Z,4.28
2019-04-21T16:30:17.655Z,3.67
2019-04-21T16:32:46.024Z,3.70
2019-04-21T16:35:14.987Z,4.22
2019-04-21T16:37:43.619Z,4.37
2019-04-21T16:40:11.991Z,3.67
2019-04-21T16:42:40.405Z,4.10
2019-04-21T16:45:08.614Z,4.35
2019-04-21T16:47:35.948Z,4.17
2019-04-21T16:50:03.898Z,3.70
2019-04-21T16:52:56.615Z,3.37
2019-04-21T16:55:53.187Z,3.45
2019-04-21T16:58:45.974Z,3.77
2019-04-21T17:01:20.002Z,3.58
2019-04-21T17:03:48.580Z,3.67
2019-04-21T17:06:17.374Z,3.25
2019-04-21T17:08:47.007Z,3.50
2019-04-21T17:11:22.768Z,3.30
2019-04-21T17:13:45.672Z,3.85
2019-04-21T17:16:42.082Z,4.17
2019-04-21T17:18:56.297Z,4.50
2019-04-21T17:21:13.209Z,4.12
2019-04-21T17:23:41.566Z,3.80
2019-04-21T17:26:19.319Z,3.85
2019-04-21T17:28:47.193Z,3.80
2019-04-21T17:31:16.094Z,3.90
2019-04-21T17:33:46.460Z,3.90
2019-04-21T17:36:14.589Z,4.22
2019-04-21T17:38:41.958Z,4.10
2019-04-21T17:41:15.594Z,4.30
2019-04-21T17:43:39.536Z,4.55
2019-04-21T17:46:06.973Z,4.00
2019-04-21T17:48:34.810Z,4.10
2019-04-21T17:51:17.322Z,4.47
2019-04-21T17:54:00.704Z,4.00
2019-04-21T17:56:57.818Z,4.72
2019-04-21T17:59:25.058Z,4.58
2019-04-21T18:01:50.123Z,4.20
2019-04-21T18:04:15.354Z,3.90
2019-04-21T18:07:05.070Z,4.00
2019-04-21T18:09:44.172Z,3.72
2019-04-21T18:12:07.482Z,4.30
2019-04-21T18:14:22.136Z,4.55
2019-04-21T18:16:51.653Z,5.30
2019-04-21T18:19:26.004Z,4.83
2019-04-21T18:22:09.008Z,5.05
2019-04-21T18:24:48.925Z,4.10
2019-04-21T18:27:09.737Z,4.08
2019-04-21T18:29:38.437Z,3.60
2019-04-21T18:32:06.317Z,3.80
2019-04-21T18:35:08.827Z,3.40
2019-04-21T18:38:05.719Z,4.12
2019-04-21T18:40:27.924Z,3.80
2019-04-21T18:43:23.877Z,3.92
2019-04-21T18:46:22.871Z,3.85
2019-04-21T18:48:51.016Z,3.60
2019-04-21T18:51:35.855Z,3.62
2019-04-21T18:54:14.865Z,4.67
2019-04-21T18:56:27.623Z,4.50
2019-04-21T18:58:56.363Z,4.28
2019-04-21T19:01:27.689Z,4.42
2019-04-21T19:03:55.958Z,4.60
2019-04-21T19:06:42.402Z,4.62
2019-04-21T19:09:11.575Z,4.40
2019-04-21T19:11:36.037Z,4.35
2019-04-21T19:21:33.230Z,5.42
2019-04-21T19:24:17.996Z,4.97
2019-04-21T19:26:46.347Z,5.92
2019-04-21T19:29:12.491Z,5.58
2019-04-21T19:31:42.705Z,5.60
2019-04-21T19:33:55.407Z,6.00
2019-04-21T19:36:17.207Z,5.70
2019-04-21T19:38:55.860Z,6.65
2019-04-21T19:41:28.081Z,6.12
2019-04-21T19:44:05.262Z,6.08
2019-04-21T19:46:30.631Z,5.65
2019-04-21T19:49:01.204Z,5.83
2019-04-21T19:51:30.313Z,6.10
2019-04-21T19:53:50.444Z,6.65
2019-04-21T19:56:10.041Z,5.85
2019-04-21T19:58:42.004Z,5.53
2019-04-21T20:01:07.583Z,5.70
2019-04-21T20:03:36.624Z,5.30
2019-04-21T20:06:16.454Z,5.37
2019-04-21T20:08:46.949Z,5.50
2019-04-21T20:11:20.239Z,5.65
2019-04-21T20:14:35.891Z,5.03
2019-04-21T20:16:29.071Z,4.95
2019-04-21T20:18:39.869Z,5.00
2019-04-21T20:21:01.886Z,5.05
2019-04-21T20:23:32.726Z,4.70
2019-04-21T20:26:02.649Z,4.50
2019-04-21T20:28:42.721Z,5.28
2019-04-21T20:31:23.339Z,5.20
2019-04-21T20:36:15.838Z,4.97
2019-04-21T20:38:35.790Z,5.28
2019-04-21T20:41:03.414Z,5.15
2019-04-21T20:43:42.735Z,5.67
2019-04-21T20:46:15.713Z,5.15
2019-04-21T20:48:40.175Z,5.30
2019-04-21T20:51:18.439Z,5.75
2019-04-21T20:53:35.929Z,5.97
2019-04-21T20:56:05.216Z,5.00
2019-04-21T20:58:34.254Z,5.55
2019-04-21T21:01:32.701Z,5.58
2019-04-21T21:03:35.204Z,5.95
2019-04-21T21:05:58.603Z,5.60
2019-04-21T21:08:35.750Z,5.67
2019-04-21T21:11:02.396Z,5.75
2019-04-21T21:13:36.848Z,5.17
2019-04-21T21:16:10.166Z,5.30
2019-04-21T21:19:06.991Z,5.28
2019-04-21T21:21:20.681Z,5.70
2019-04-21T21:23:49.298Z,5.47
2019-04-21T21:26:21.521Z,6.00
2019-04-21T21:28:44.117Z,5.70
2019-04-21T21:31:16.404Z,5.70
2019-04-21T21:33:50.655Z,5.70
2019-04-21T21:36:13.771Z,5.78
2019-04-21T21:38:43.665Z,5.50
2019-04-21T21:41:07.570Z,6.25
2019-04-21T21:43:27.521Z,5.50
2019-04-21T21:46:29.218Z,6.10
2019-04-21T21:49:01.289Z,6.28
2019-04-21T21:51:22.871Z,6.25
2019-04-21T21:53:44.370Z,6.83
2019-04-21T21:56:11.730Z,7.17
2019-04-21T21:58:42.480Z,6.20
2019-04-21T22:01:13.186Z,6.35
2019-04-21T22:03:46.214Z,5.85
2019-04-21T22:06:15.704Z,5.55
2019-04-21T22:08:40.515Z,5.70
2019-04-21T22:11:08.861Z,5.80
2019-04-21T22:13:46.936Z,5.80
2019-04-21T22:16:10.392Z,5.53
2019-04-21T22:18:56.783Z,5.22
2019-04-21T22:21:13.933Z,5.17
2019-04-21T22:23:44.141Z,6.20
2019-04-21T22:26:05.177Z,5.15
2019-04-21T22:28:33.787Z,6.03
2019-04-21T22:31:06.754Z,5.90
2019-04-21T22:33:32.212Z,5.70
2019-04-21T22:36:09.954Z,5.50
2019-04-21T22:38:43.772Z,5.87
2019-04-21T22:41:10.639Z,5.80
2019-04-21T22:43:36.397Z,5.85
2019-04-21T22:45:59.112Z,6.03
2019-04-21T22:48:28.990Z,5.53
2019-04-21T22:50:56.395Z,6.15
2019-04-21T22:53:28.013Z,5.97
2019-04-21T22:55:57.246Z,5.75
2019-04-21T22:58:28.201Z,5.37
2019-04-21T23:00:56.049Z,5.80
2019-04-21T23:03:24.842Z,6.08
2019-04-21T23:05:53.513Z,6.28
2019-04-21T23:08:27.966Z,6.12
2019-04-21T23:10:57.877Z,6.40
2019-04-21T23:13:23.381Z,6.72
2019-04-21T23:15:53.630Z,5.90
2019-04-21T23:18:31.916Z,6.42
2019-04-21T23:21:03.332Z,6.22
2019-04-21T23:23:37.315Z,5.78
2019-04-21T23:26:01.271Z,6.25
2019-04-21T23:28:39.150Z,5.60
2019-04-21T23:31:09.832Z,5.92
2019-04-21T23:33:16.404Z,5.95
2019-04-21T23:35:46.049Z,5.75
2019-04-21T23:38:12.937Z,6.00
2019-04-21T23:40:48.738Z,5.65
2019-04-21T23:43:18.588Z,6.05
2019-04-21T23:45:43.229Z,6.20
2019-04-21T23:48:21.697Z,5.97
2019-04-21T23:50:50.719Z,6.10
2019-04-21T23:53:08.059Z,6.20
2019-04-21T23:55:35.375Z,5.75
2019-04-21T23:58:08.076Z,6.40
